createdAt,value
2023-05-18T00:00:28.055Z,9.58
2023-05-18T00:02:58.163Z,9.51
2023-05-18T00:05:34.401Z,9.48
2023-05-18T00:08:02.618Z,9.51
2023-05-18T00:10:30.523Z,9.47
2023-05-18T00:12:58.480Z,9.30
2023-05-18T00:15:26.432Z,9.38
2023-05-18T00:17:54.455Z,9.38
2023-05-18T00:20:26.593Z,9.31
2023-05-18T00:22:55.975Z,9.31
2023-05-18T00:25:24.309Z,9.32
2023-05-18T00:27:52.299Z,9.28
2023-05-18T00:30:20.316Z,9.32
2023-05-18T00:32:48.235Z,9.29
2023-05-18T00:35:16.184Z,9.22
2023-05-18T00:37:44.047Z,9.23
2023-05-18T00:40:14.374Z,9.21
2023-05-18T00:42:42.292Z,9.25
2023-05-18T00:45:11.294Z,9.24
2023-05-18T00:47:39.311Z,9.24
2023-05-18T00:50:08.380Z,9.21
2023-05-18T00:52:40.878Z,9.14
2023-05-18T00:55:09.252Z,9.13
2023-05-18T00:57:38.545Z,9.14
2023-05-18T01:00:10.728Z,9.13
2023-05-18T01:02:42.721Z,9.05
2023-05-18T01:05:11.129Z,8.95
2023-05-18T01:07:42.507Z,8.80
2023-05-18T01:10:12.417Z,8.63
2023-05-18T01:12:48.434Z,8.64
2023-05-18T01:15:19.467Z,8.68
2023-05-18T01:18:06.340Z,8.73
2023-05-18T01:20:39.163Z,8.59
2023-05-18T01:23:20.635Z,8.61
2023-05-18T01:25:55.436Z,8.64
2023-05-18T01:28:28.418Z,8.66
2023-05-18T01:30:57.625Z,8.65
2023-05-18T01:33:25.701Z,8.64
2023-05-18T01:35:53.647Z,8.66
2023-05-18T01:38:23.792Z,8.67
2023-05-18T01:41:01.120Z,8.52
2023-05-18T01:43:34.521Z,8.39
2023-05-18T01:46:10.217Z,8.42
2023-05-18T01:48:40.618Z,8.45
2023-05-18T01:51:12.567Z,8.48
2023-05-18T01:53:46.604Z,8.44
2023-05-18T01:56:16.042Z,8.40
2023-05-18T01:58:45.652Z,8.40
2023-05-18T02:01:13.681Z,8.33
2023-05-18T02:03:41.619Z,8.28
2023-05-18T02:06:09.426Z,8.24
2023-05-18T02:08:38.001Z,8.14
2023-05-18T02:11:06.086Z,8.02
2023-05-18T02:13:33.830Z,8.02
2023-05-18T02:16:05.146Z,7.94
2023-05-18T02:18:36.482Z,7.89
2023-05-18T02:21:05.283Z,7.84
2023-05-18T02:23:33.914Z,7.83
2023-05-18T02:26:02.211Z,7.84
2023-05-18T02:28:30.218Z,7.83
2023-05-18T02:31:07.846Z,7.79
2023-05-18T02:33:39.911Z,7.84
2023-05-18T02:36:12.462Z,7.86
2023-05-18T02:38:40.984Z,7.75
2023-05-18T02:41:08.840Z,7.73
2023-05-18T02:43:39.373Z,7.63
2023-05-18T02:46:08.801Z,7.60
2023-05-18T02:48:37.018Z,7.60
2023-05-18T02:51:04.959Z,7.64
2023-05-18T02:53:32.832Z,7.48
2023-05-18T02:56:03.344Z,7.50
2023-05-18T02:58:31.726Z,7.34
2023-05-18T03:01:00.455Z,7.33
2023-05-18T03:03:29.777Z,7.35
2023-05-18T03:05:57.574Z,7.35
2023-05-18T03:08:26.865Z,7.40
2023-05-18T03:10:54.769Z,7.26
2023-05-18T03:13:22.615Z,7.26
2023-05-18T03:15:51.098Z,7.22
2023-05-18T03:18:19.152Z,7.22
2023-05-18T03:20:49.971Z,7.23
2023-05-18T03:23:17.861Z,7.13
2023-05-18T03:25:45.869Z,7.18
2023-05-18T03:28:13.673Z,7.27
2023-05-18T03:30:41.539Z,7.26
2023-05-18T03:33:09.431Z,7.34
2023-05-18T03:35:37.502Z,7.32
2023-05-18T03:38:06.645Z,7.35
2023-05-18T03:40:34.483Z,7.42
2023-05-18T03:43:02.351Z,7.44
2023-05-18T03:45:30.389Z,7.44
2023-05-18T03:47:58.449Z,7.49
2023-05-18T03:50:26.410Z,7.49
2023-05-18T03:52:54.285Z,7.48
2023-05-18T03:55:24.005Z,7.38
2023-05-18T03:57:51.822Z,7.39
2023-05-18T04:00:20.440Z,7.35
2023-05-18T04:02:51.910Z,7.39
2023-05-18T04:05:20.592Z,7.47
2023-05-18T04:07:48.463Z,7.59
2023-05-18T04:10:17.295Z,7.75
2023-05-18T04:12:46.578Z,7.78
2023-05-18T04:15:15.479Z,7.88
2023-05-18T04:17:45.845Z,7.91
2023-05-18T04:20:14.729Z,8.02
2023-05-18T04:22:46.355Z,8.08
2023-05-18T04:25:15.066Z,8.15
2023-05-18T04:27:45.352Z,8.12
2023-05-18T04:30:15.256Z,7.97
2023-05-18T04:32:43.790Z,8.00
2023-05-18T04:35:12.739Z,8.07
2023-05-18T04:37:41.360Z,8.20
2023-05-18T04:40:13.876Z,8.34
2023-05-18T04:42:45.770Z,8.44
2023-05-18T04:45:17.688Z,8.51
2023-05-18T04:47:47.306Z,8.57
2023-05-18T04:50:18.810Z,8.61
2023-05-18T04:52:49.181Z,8.53
2023-05-18T04:55:22.828Z,8.63
2023-05-18T04:57:51.081Z,8.68
2023-05-18T05:00:21.647Z,8.76
2023-05-18T05:02:49.671Z,8.86
2023-05-18T05:05:17.572Z,8.95
2023-05-18T05:07:45.566Z,8.98
2023-05-18T05:10:13.429Z,9.06
2023-05-18T05:12:42.589Z,9.12
2023-05-18T05:15:11.274Z,9.19
2023-05-18T05:17:40.534Z,9.41
2023-05-18T05:20:09.441Z,9.68
2023-05-18T05:22:37.335Z,9.95
2023-05-18T05:25:06.324Z,10.10
2023-05-18T05:27:34.462Z,10.26
2023-05-18T05:30:02.351Z,10.34
2023-05-18T05:32:30.297Z,10.30
2023-05-18T05:34:59.625Z,10.34
2023-05-18T05:37:27.540Z,10.33
2023-05-18T05:39:56.655Z,10.33
2023-05-18T05:42:25.686Z,10.28
2023-05-18T05:44:53.765Z,10.30
2023-05-18T05:47:22.244Z,10.36
2023-05-18T05:49:50.219Z,10.34
2023-05-18T05:52:19.449Z,10.35
2023-05-18T05:54:47.267Z,10.30
2023-05-18T05:57:15.095Z,10.16
2023-05-18T05:59:42.992Z,10.24
2023-05-18T06:02:11.730Z,10.24
2023-05-18T06:04:39.766Z,10.38
2023-05-18T06:07:07.764Z,10.47
2023-05-18T06:09:37.233Z,10.52
2023-05-18T06:12:08.795Z,10.64
2023-05-18T06:14:46.524Z,10.67
2023-05-18T06:17:14.469Z,10.66
2023-05-18T06:19:42.250Z,10.74
2023-05-18T06:22:10.139Z,10.87
2023-05-18T06:24:40.024Z,11.02
2023-05-18T06:27:07.925Z,11.05
2023-05-18T06:29:37.033Z,11.11
2023-05-18T06:32:05.476Z,11.13
2023-05-18T06:34:33.313Z,11.22
2023-05-18T06:37:01.100Z,11.34
2023-05-18T06:39:35.217Z,11.46
2023-05-18T06:42:04.864Z,11.56
2023-05-18T06:44:40.242Z,11.56
2023-05-18T06:47:08.863Z,11.59
2023-05-18T06:49:37.077Z,11.55
2023-05-18T06:52:05.534Z,11.41
2023-05-18T06:54:39.941Z,11.47
2023-05-18T06:57:09.338Z,11.33
2023-05-18T06:59:37.314Z,11.46
2023-05-18T07:02:05.502Z,11.54
2023-05-18T07:04:33.546Z,11.63
2023-05-18T07:07:01.672Z,11.71
2023-05-18T07:09:29.649Z,11.77
2023-05-18T07:11:57.522Z,11.93
2023-05-18T07:14:26.815Z,12.07
2023-05-18T07:16:54.768Z,12.13
2023-05-18T07:19:22.988Z,12.16
2023-05-18T07:21:51.334Z,12.10
2023-05-18T07:24:19.816Z,12.16
2023-05-18T07:26:47.814Z,12.23
2023-05-18T07:29:16.424Z,12.24
2023-05-18T07:31:50.707Z,12.29
2023-05-18T07:34:18.737Z,12.37
2023-05-18T07:36:50.171Z,12.39
2023-05-18T07:39:32.474Z,12.32
2023-05-18T07:42:00.886Z,12.41
2023-05-18T07:44:28.959Z,12.50
2023-05-18T07:46:58.684Z,12.64
2023-05-18T07:49:26.942Z,12.87
2023-05-18T07:51:54.987Z,12.97
2023-05-18T07:54:23.397Z,12.98
2023-05-18T07:56:57.483Z,13.03
2023-05-18T07:59:27.197Z,13.06
2023-05-18T08:01:55.154Z,13.11
2023-05-18T08:04:24.706Z,13.23
2023-05-18T08:06:54.898Z,13.18
2023-05-18T08:09:23.251Z,13.27
2023-05-18T08:11:53.575Z,13.25
2023-05-18T08:14:23.851Z,13.15
2023-05-18T08:16:51.949Z,13.16
2023-05-18T08:19:24.037Z,13.05
2023-05-18T08:21:53.975Z,13.08
2023-05-18T08:24:23.583Z,13.19
2023-05-18T08:26:51.967Z,13.12
2023-05-18T08:29:20.019Z,13.12
2023-05-18T08:31:49.535Z,13.06
2023-05-18T08:34:19.816Z,13.29
2023-05-18T08:36:47.976Z,13.59
2023-05-18T08:39:17.660Z,13.78
2023-05-18T08:41:53.774Z,13.87
2023-05-18T08:44:26.898Z,13.84
2023-05-18T08:46:59.093Z,13.75
2023-05-18T08:49:28.372Z,13.65
2023-05-18T08:51:57.889Z,13.60
2023-05-18T08:54:27.871Z,13.56
2023-05-18T08:56:57.238Z,13.54
2023-05-18T08:59:26.726Z,13.58
2023-05-18T09:01:55.708Z,13.61
2023-05-18T09:04:36.299Z,13.73
2023-05-18T09:07:08.562Z,13.81
2023-05-18T09:09:39.868Z,14.05
2023-05-18T09:12:08.999Z,14.22
2023-05-18T09:14:39.654Z,14.30
2023-05-18T09:17:07.751Z,14.47
2023-05-18T09:19:38.076Z,14.47
2023-05-18T09:22:06.772Z,14.05
2023-05-18T09:24:34.882Z,14.27
2023-05-18T09:27:04.862Z,14.47
2023-05-18T09:29:33.848Z,14.62
2023-05-18T09:32:04.581Z,14.76
2023-05-18T09:34:41.041Z,14.97
2023-05-18T09:37:10.447Z,15.13
2023-05-18T09:39:39.972Z,14.95
2023-05-18T09:42:09.479Z,15.02
2023-05-18T09:44:40.855Z,15.29
2023-05-18T09:47:10.872Z,15.35
2023-05-18T09:49:39.322Z,15.24
2023-05-18T09:52:11.267Z,15.17
2023-05-18T09:54:42.291Z,15.22
2023-05-18T09:57:11.854Z,15.16
2023-05-18T09:59:39.915Z,15.23
2023-05-18T10:02:09.013Z,15.50
2023-05-18T10:04:38.548Z,15.75
2023-05-18T10:07:12.480Z,15.69
2023-05-18T10:09:42.048Z,15.64
2023-05-18T10:12:16.337Z,15.32
2023-05-18T10:14:45.312Z,14.67
2023-05-18T10:17:16.411Z,14.86
2023-05-18T10:19:45.874Z,15.13
2023-05-18T10:22:17.346Z,15.43
2023-05-18T10:24:52.625Z,15.70
2023-05-18T10:27:27.962Z,15.77
2023-05-18T10:29:58.942Z,15.85
2023-05-18T10:32:27.660Z,15.60
2023-05-18T10:34:57.551Z,15.49
2023-05-18T10:37:30.566Z,15.33
2023-05-18T10:40:00.988Z,15.39
2023-05-18T10:42:31.890Z,15.54
2023-05-18T10:45:01.480Z,15.63
2023-05-18T10:47:29.628Z,15.84
2023-05-18T10:49:59.661Z,16.04
2023-05-18T10:52:31.815Z,16.07
2023-05-18T10:54:59.749Z,16.32
2023-05-18T10:57:34.563Z,16.25
2023-05-18T11:00:02.726Z,16.35
2023-05-18T11:02:31.116Z,16.30
2023-05-18T11:04:59.210Z,16.25
2023-05-18T11:07:30.596Z,16.22
2023-05-18T11:10:01.985Z,16.30
2023-05-18T11:12:33.145Z,16.43
2023-05-18T11:15:01.095Z,16.45
2023-05-18T11:17:31.011Z,16.41
2023-05-18T11:20:15.506Z,16.29
2023-05-18T11:22:52.376Z,16.47
2023-05-18T11:25:44.734Z,16.58
2023-05-18T11:28:14.628Z,16.59
2023-05-18T11:30:51.217Z,16.70
2023-05-18T11:33:24.394Z,16.59
2023-05-18T11:36:24.613Z,16.69
2023-05-18T11:38:54.804Z,16.90
2023-05-18T11:41:34.651Z,16.99
2023-05-18T11:44:16.158Z,17.02
2023-05-18T11:46:53.557Z,16.75
2023-05-18T11:49:24.141Z,16.53
2023-05-18T11:52:09.228Z,16.24
2023-05-18T11:54:42.316Z,16.40
2023-05-18T11:57:11.489Z,16.59
2023-05-18T11:59:42.200Z,16.89
2023-05-18T12:02:14.044Z,17.11
2023-05-18T12:04:46.716Z,17.30
2023-05-18T12:07:15.169Z,17.08
2023-05-18T12:09:44.306Z,17.02
2023-05-18T12:12:13.295Z,17.07
2023-05-18T12:14:45.228Z,17.29
2023-05-18T12:17:13.390Z,16.83
2023-05-18T12:19:45.522Z,16.57
2023-05-18T12:22:13.770Z,16.61
2023-05-18T12:24:42.749Z,16.73
2023-05-18T12:27:12.649Z,16.72
2023-05-18T12:29:41.589Z,16.98
2023-05-18T12:32:12.682Z,17.20
2023-05-18T12:34:40.841Z,17.36
2023-05-18T12:37:08.941Z,17.62
2023-05-18T12:39:39.135Z,17.78
2023-05-18T12:42:15.081Z,17.77
2023-05-18T12:44:44.892Z,17.72
2023-05-18T12:47:15.085Z,17.69
2023-05-18T12:49:44.766Z,17.64
2023-05-18T12:52:14.665Z,17.44
2023-05-18T12:54:58.725Z,17.30
2023-05-18T12:57:27.212Z,17.53
2023-05-18T12:59:55.912Z,17.54
2023-05-18T13:02:33.652Z,17.70
2023-05-18T13:05:07.494Z,17.76
2023-05-18T13:07:43.747Z,17.57
2023-05-18T13:10:14.026Z,17.61
2023-05-18T13:12:46.688Z,17.62
2023-05-18T13:15:17.062Z,17.52
2023-05-18T13:18:00.921Z,17.57
2023-05-18T13:20:35.909Z,17.59
2023-05-18T13:23:11.899Z,17.57
2023-05-18T13:25:40.125Z,17.79
2023-05-18T13:28:10.517Z,17.84
2023-05-18T13:30:39.086Z,17.92
2023-05-18T13:33:09.333Z,17.93
2023-05-18T13:35:38.302Z,17.85
2023-05-18T13:38:06.542Z,17.83
2023-05-18T13:40:34.376Z,17.93
2023-05-18T13:43:02.222Z,18.11
2023-05-18T13:45:34.551Z,18.32
2023-05-18T13:48:09.621Z,18.46
2023-05-18T13:50:40.117Z,18.49
2023-05-18T13:53:08.101Z,18.16
2023-05-18T13:55:41.452Z,18.15
2023-05-18T13:58:11.285Z,18.39
2023-05-18T14:00:43.656Z,18.54
2023-05-18T14:03:11.764Z,18.65
2023-05-18T14:05:41.145Z,18.48
2023-05-18T14:08:08.967Z,18.40
2023-05-18T14:10:37.034Z,18.57
2023-05-18T14:13:04.909Z,18.40
2023-05-18T14:15:32.732Z,18.36
2023-05-18T14:18:00.640Z,18.50
2023-05-18T14:20:29.477Z,18.66
2023-05-18T14:23:00.177Z,18.52
2023-05-18T14:25:28.335Z,18.21
2023-05-18T14:27:56.336Z,17.89
2023-05-18T14:30:24.380Z,17.87
2023-05-18T14:32:52.673Z,17.70
2023-05-18T14:35:20.564Z,17.66
2023-05-18T14:37:48.401Z,17.78
2023-05-18T14:40:17.800Z,17.81
2023-05-18T14:42:47.701Z,17.91
2023-05-18T14:45:16.785Z,17.98
2023-05-18T14:47:44.640Z,17.97
2023-05-18T14:50:12.881Z,17.94
2023-05-18T14:52:41.289Z,17.75
2023-05-18T14:55:10.332Z,17.71
2023-05-18T14:57:39.781Z,17.62
2023-05-18T15:00:09.088Z,17.59
2023-05-18T15:02:37.129Z,17.66
2023-05-18T15:05:05.749Z,17.62
2023-05-18T15:07:33.927Z,17.75
2023-05-18T15:10:02.176Z,17.87
2023-05-18T15:12:30.208Z,18.00
2023-05-18T15:14:59.462Z,17.96
2023-05-18T15:17:27.504Z,17.79
2023-05-18T15:19:55.626Z,17.88
2023-05-18T15:22:23.909Z,17.76
2023-05-18T15:24:51.860Z,17.73
2023-05-18T15:27:31.415Z,17.65
2023-05-18T15:30:01.417Z,17.53
2023-05-18T15:32:30.009Z,17.70
2023-05-18T15:34:59.004Z,17.84
2023-05-18T15:37:27.210Z,17.90
2023-05-18T15:39:55.702Z,17.73
2023-05-18T15:42:23.755Z,17.79
2023-05-18T15:44:51.979Z,17.83
2023-05-18T15:47:23.576Z,17.90
2023-05-18T15:49:51.650Z,17.91
2023-05-18T15:52:20.046Z,17.95
2023-05-18T15:54:48.747Z,17.93
2023-05-18T15:57:16.760Z,17.83
2023-05-18T15:59:45.471Z,17.85
2023-05-18T16:02:13.524Z,17.78
2023-05-18T16:04:42.937Z,17.67
2023-05-18T16:07:10.948Z,17.58
2023-05-18T16:09:39.248Z,17.62
2023-05-18T16:12:08.827Z,17.63
2023-05-18T16:14:36.916Z,17.70
2023-05-18T16:17:05.135Z,17.68
2023-05-18T16:19:34.060Z,17.69
2023-05-18T16:22:05.038Z,17.82
2023-05-18T16:24:33.062Z,17.67
2023-05-18T16:27:01.391Z,17.65
2023-05-18T16:29:29.452Z,17.73
2023-05-18T16:31:57.547Z,17.68
2023-05-18T16:34:25.646Z,17.60
2023-05-18T16:36:53.657Z,17.66
2023-05-18T16:39:24.092Z,17.60
2023-05-18T16:41:56.456Z,17.57
2023-05-18T16:44:24.435Z,17.60
2023-05-18T16:46:52.935Z,17.67
2023-05-18T16:49:21.267Z,17.75
2023-05-18T16:51:50.759Z,17.77
2023-05-18T16:54:19.173Z,17.71
2023-05-18T16:56:48.662Z,17.41
2023-05-18T16:59:16.694Z,17.39
2023-05-18T17:01:44.624Z,17.43
2023-05-18T17:04:12.968Z,17.33
2023-05-18T17:06:41.253Z,17.34
2023-05-18T17:09:09.876Z,17.34
2023-05-18T17:11:38.419Z,17.31
2023-05-18T17:14:11.480Z,17.13
2023-05-18T17:16:41.108Z,17.02
2023-05-18T17:19:09.191Z,17.14
2023-05-18T17:21:37.447Z,17.16
2023-05-18T17:24:06.617Z,17.22
2023-05-18T17:26:34.691Z,17.24
2023-05-18T17:29:02.733Z,17.25
2023-05-18T17:31:32.246Z,17.11
2023-05-18T17:34:00.220Z,17.12
2023-05-18T17:36:28.386Z,17.14
2023-05-18T17:38:57.234Z,17.10
2023-05-18T17:41:26.073Z,17.10
2023-05-18T17:43:54.650Z,17.14
2023-05-18T17:46:22.703Z,17.03
2023-05-18T17:48:52.188Z,16.97
2023-05-18T17:51:41.356Z,16.87
2023-05-18T17:54:16.188Z,16.88
2023-05-18T17:56:44.102Z,16.94
2023-05-18T17:59:12.252Z,16.91
2023-05-18T18:01:40.639Z,16.96
2023-05-18T18:04:12.566Z,16.88
2023-05-18T18:06:42.632Z,16.82
2023-05-18T18:09:12.712Z,16.73
2023-05-18T18:11:46.101Z,16.64
2023-05-18T18:14:17.308Z,16.58
2023-05-18T18:17:11.797Z,16.61
2023-05-18T18:19:42.675Z,16.59
2023-05-18T18:22:11.235Z,16.56
2023-05-18T18:24:39.499Z,16.44
2023-05-18T18:27:09.072Z,16.34
2023-05-18T18:29:39.566Z,16.19
2023-05-18T18:32:12.073Z,16.16
2023-05-18T18:34:41.613Z,16.13
2023-05-18T18:37:11.917Z,16.03
2023-05-18T18:39:40.441Z,15.95
2023-05-18T18:42:09.153Z,15.99
2023-05-18T18:44:44.890Z,15.97
2023-05-18T18:47:15.260Z,15.98
2023-05-18T18:49:47.959Z,15.88
2023-05-18T18:52:18.355Z,15.87
2023-05-18T18:54:47.566Z,15.82
2023-05-18T18:57:15.771Z,15.74
2023-05-18T18:59:45.685Z,15.73
2023-05-18T19:02:16.680Z,15.65
2023-05-18T19:04:46.541Z,15.64
2023-05-18T19:07:14.525Z,15.57
2023-05-18T19:09:42.699Z,15.52
2023-05-18T19:12:14.032Z,15.37
2023-05-18T19:14:44.552Z,15.22
2023-05-18T19:17:12.682Z,15.25
2023-05-18T19:19:45.039Z,15.13
2023-05-18T19:22:15.356Z,15.17
2023-05-18T19:24:45.580Z,15.13
2023-05-18T19:27:13.744Z,15.15
2023-05-18T19:29:54.842Z,15.09
2023-05-18T19:32:25.697Z,14.97
2023-05-18T19:34:53.530Z,14.94
2023-05-18T19:37:26.027Z,14.97
2023-05-18T19:39:53.768Z,14.94
2023-05-18T19:42:21.781Z,14.95
2023-05-18T19:44:49.719Z,14.91
2023-05-18T19:47:17.604Z,14.81
2023-05-18T19:49:45.436Z,14.78
2023-05-18T19:52:13.384Z,14.68
2023-05-18T19:54:44.506Z,14.69
2023-05-18T19:57:12.717Z,14.69
2023-05-18T19:59:40.717Z,14.68
2023-05-18T20:02:08.649Z,14.66
2023-05-18T20:04:37.046Z,14.62
2023-05-18T20:07:05.355Z,14.57
2023-05-18T20:09:33.713Z,14.47
2023-05-18T20:12:03.599Z,14.44
2023-05-18T20:14:33.559Z,14.39
2023-05-18T20:17:01.813Z,14.29
2023-05-18T20:19:32.572Z,14.21
2023-05-18T20:22:00.732Z,14.20
2023-05-18T20:24:28.719Z,14.20
2023-05-18T20:26:57.309Z,14.19
2023-05-18T20:29:26.746Z,14.20
2023-05-18T20:31:55.228Z,14.08
2023-05-18T20:34:23.471Z,13.96
2023-05-18T20:36:51.570Z,13.88
2023-05-18T20:39:19.732Z,13.75
2023-05-18T20:41:55.450Z,13.76
2023-05-18T20:44:23.839Z,13.64
2023-05-18T20:47:16.468Z,13.76
2023-05-18T20:49:44.519Z,13.74
2023-05-18T20:52:12.434Z,13.63
2023-05-18T20:54:40.912Z,13.68
2023-05-18T20:57:11.121Z,13.61
2023-05-18T20:59:39.721Z,13.59
2023-05-18T21:02:10.838Z,13.62
2023-05-18T21:04:38.847Z,13.60
2023-05-18T21:07:06.910Z,13.50
2023-05-18T21:09:34.944Z,13.49
2023-05-18T21:12:03.215Z,13.49
2023-05-18T21:14:31.340Z,13.49
2023-05-18T21:16:59.237Z,13.43
2023-05-18T21:19:28.784Z,13.43
2023-05-18T21:21:56.873Z,13.38
2023-05-18T21:24:25.063Z,13.31
2023-05-18T21:26:53.109Z,13.29
2023-05-18T21:29:21.015Z,13.10
2023-05-18T21:32:33.995Z,13.08
2023-05-18T21:35:17.703Z,13.00
2023-05-18T21:40:44.374Z,12.92
2023-05-18T21:43:18.049Z,12.96
2023-05-18T21:45:53.588Z,12.89
2023-05-18T21:48:30.261Z,12.91
2023-05-18T21:51:17.415Z,12.96
2023-05-18T21:53:57.197Z,12.95
2023-05-18T21:56:52.046Z,12.88
2023-05-18T21:59:34.193Z,12.84
2023-05-18T22:02:16.902Z,12.86
2023-05-18T22:07:46.825Z,12.71
2023-05-18T22:10:37.740Z,12.72
2023-05-18T22:13:24.382Z,12.58
2023-05-18T22:16:09.572Z,12.60
2023-05-18T22:18:41.453Z,12.61
2023-05-18T22:21:19.244Z,12.59
2023-05-18T22:23:52.118Z,12.57
2023-05-18T22:26:42.561Z,12.50
2023-05-18T22:29:39.659Z,12.49
2023-05-18T22:32:21.674Z,12.43
2023-05-18T22:34:50.949Z,12.39
2023-05-18T22:37:19.028Z,12.36
2023-05-18T22:39:48.681Z,12.25
2023-05-18T22:42:16.977Z,12.24
2023-05-18T22:44:45.558Z,12.25
2023-05-18T22:47:13.556Z,12.15
2023-05-18T22:49:41.481Z,12.19
2023-05-18T22:52:10.331Z,12.18
2023-05-18T22:54:38.580Z,12.15
2023-05-18T22:57:08.371Z,12.13
2023-05-18T22:59:39.829Z,12.06
2023-05-18T23:02:07.852Z,11.94
2023-05-18T23:04:38.240Z,11.97
2023-05-18T23:07:06.732Z,12.00
2023-05-18T23:09:37.137Z,11.97
2023-05-18T23:12:05.470Z,11.94
2023-05-18T23:14:36.611Z,11.94
2023-05-18T23:17:04.874Z,11.88
2023-05-18T23:19:34.173Z,11.85
2023-05-18T23:22:02.334Z,11.84
2023-05-18T23:24:30.325Z,11.85
2023-05-18T23:26:59.472Z,11.84
2023-05-18T23:29:27.401Z,11.72
2023-05-18T23:31:56.819Z,11.69
2023-05-18T23:34:25.167Z,11.69
2023-05-18T23:36:57.573Z,11.67
2023-05-18T23:39:28.621Z,11.69
2023-05-18T23:41:59.814Z,11.63
2023-05-18T23:44:29.906Z,11.59
2023-05-18T23:47:00.466Z,11.57
2023-05-18T23:49:28.915Z,11.55
2023-05-18T23:52:02.109Z,11.56
2023-05-18T23:54:30.738Z,11.51
2023-05-18T23:56:59.816Z,11.48
2023-05-18T23:59:28.425Z,11.45
